sensor_id;sensor_type;location;lat;lon;timestamp;P1;durP1;ratioP1;P2;durP2;ratioP2
14554;SDS011;7364;50.870;4.722;2023-02-17T00:01:33;6.17;;;5.30;;
14554;SDS011;7364;50.870;4.722;2023-02-17T00:04:00;8.50;;;5.57;;
14554;SDS011;7364;50.870;4.722;2023-02-17T00:06:29;6.97;;;5.10;;
14554;SDS011;7364;50.870;4.722;2023-02-17T00:08:57;9.87;;;6.07;;
14554;SDS011;7364;50.870;4.722;2023-02-17T00:11:26;6.43;;;5.53;;
14554;SDS011;7364;50.870;4.722;2023-02-17T00:13:53;7.57;;;5.43;;
14554;SDS011;7364;50.870;4.722;2023-02-17T00:16:25;7.03;;;4.93;;
14554;SDS011;7364;50.870;4.722;2023-02-17T00:18:53;8.73;;;4.83;;
14554;SDS011;7364;50.870;4.722;2023-02-17T00:21:23;6.07;;;5.47;;
14554;SDS011;7364;50.870;4.722;2023-02-17T00:23:57;6.13;;;5.50;;
14554;SDS011;7364;50.870;4.722;2023-02-17T00:26:25;6.53;;;4.53;;
14554;SDS011;7364;50.870;4.722;2023-02-17T00:28:53;6.70;;;4.63;;
14554;SDS011;7364;50.870;4.722;2023-02-17T00:31:20;5.87;;;5.00;;
14554;SDS011;7364;50.870;4.722;2023-02-17T00:33:48;6.37;;;5.53;;
14554;SDS011;7364;50.870;4.722;2023-02-17T00:36:16;6.20;;;4.80;;
14554;SDS011;7364;50.870;4.722;2023-02-17T00:38:45;6.13;;;5.50;;
14554;SDS011;7364;50.870;4.722;2023-02-17T00:41:14;5.23;;;4.53;;
14554;SDS011;7364;50.870;4.722;2023-02-17T00:43:42;6.03;;;4.93;;
14554;SDS011;7364;50.870;4.722;2023-02-17T00:46:09;6.13;;;4.40;;
14554;SDS011;7364;50.870;4.722;2023-02-17T00:48:37;6.73;;;5.17;;
14554;SDS011;7364;50.870;4.722;2023-02-17T00:51:04;7.70;;;5.30;;
14554;SDS011;7364;50.870;4.722;2023-02-17T00:53:31;6.77;;;5.83;;
14554;SDS011;7364;50.870;4.722;2023-02-17T00:55:59;6.97;;;5.43;;
14554;SDS011;7364;50.870;4.722;2023-02-17T00:58:27;6.00;;;4.70;;
14554;SDS011;7364;50.870;4.722;2023-02-17T01:00:55;9.07;;;5.30;;
14554;SDS011;7364;50.870;4.722;2023-02-17T01:03:23;8.00;;;5.70;;
14554;SDS011;7364;50.870;4.722;2023-02-17T01:05:51;7.07;;;5.50;;
14554;SDS011;7364;50.870;4.722;2023-02-17T01:08:19;5.43;;;4.67;;
14554;SDS011;7364;50.870;4.722;2023-02-17T01:10:47;5.47;;;4.40;;
14554;SDS011;7364;50.870;4.722;2023-02-17T01:13:16;6.00;;;4.37;;
14554;SDS011;7364;50.870;4.722;2023-02-17T01:15:46;6.57;;;4.10;;
14554;SDS011;7364;50.870;4.722;2023-02-17T01:18:16;5.43;;;4.00;;
14554;SDS011;7364;50.870;4.722;2023-02-17T01:20:44;6.63;;;4.27;;
14554;SDS011;7364;50.870;4.722;2023-02-17T01:23:12;5.70;;;4.47;;
14554;SDS011;7364;50.870;4.722;2023-02-17T01:25:40;7.03;;;4.33;;
14554;SDS011;7364;50.870;4.722;2023-02-17T01:28:09;3.87;;;3.47;;
14554;SDS011;7364;50.870;4.722;2023-02-17T01:30:40;5.33;;;3.90;;
14554;SDS011;7364;50.870;4.722;2023-02-17T01:33:08;6.13;;;3.83;;
14554;SDS011;7364;50.870;4.722;2023-02-17T01:35:36;6.07;;;4.40;;
14554;SDS011;7364;50.870;4.722;2023-02-17T01:38:03;6.07;;;4.10;;
14554;SDS011;7364;50.870;4.722;2023-02-17T01:40:30;6.40;;;3.93;;
14554;SDS011;7364;50.870;4.722;2023-02-17T01:42:57;5.40;;;4.40;;
14554;SDS011;7364;50.870;4.722;2023-02-17T01:45:40;6.63;;;4.77;;
14554;SDS011;7364;50.870;4.722;2023-02-17T01:48:16;6.57;;;3.67;;
14554;SDS011;7364;50.870;4.722;2023-02-17T01:50:47;4.63;;;3.80;;
14554;SDS011;7364;50.870;4.722;2023-02-17T01:53:18;3.43;;;3.00;;
14554;SDS011;7364;50.870;4.722;2023-02-17T01:55:48;4.00;;;2.83;;
14554;SDS011;7364;50.870;4.722;2023-02-17T01:58:16;7.27;;;2.97;;
14554;SDS011;7364;50.870;4.722;2023-02-17T02:00:46;4.13;;;3.00;;
14554;SDS011;7364;50.870;4.722;2023-02-17T02:03:17;3.77;;;2.90;;
14554;SDS011;7364;50.870;4.722;2023-02-17T02:05:45;4.10;;;3.30;;
14554;SDS011;7364;50.870;4.722;2023-02-17T02:08:12;4.27;;;3.07;;
14554;SDS011;7364;50.870;4.722;2023-02-17T02:10:41;9.43;;;3.90;;
14554;SDS011;7364;50.870;4.722;2023-02-17T02:13:08;4.13;;;3.27;;
14554;SDS011;7364;50.870;4.722;2023-02-17T02:15:37;4.47;;;2.83;;
14554;SDS011;7364;50.870;4.722;2023-02-17T02:18:13;4.23;;;3.20;;
14554;SDS011;7364;50.870;4.722;2023-02-17T02:24:24;3.30;;;2.47;;
14554;SDS011;7364;50.870;4.722;2023-02-17T02:27:12;3.93;;;2.63;;
14554;SDS011;7364;50.870;4.722;2023-02-17T02:30:08;5.57;;;3.20;;
14554;SDS011;7364;50.870;4.722;2023-02-17T02:33:03;3.60;;;2.70;;
14554;SDS011;7364;50.870;4.722;2023-02-17T02:35:39;4.87;;;3.43;;
14554;SDS011;7364;50.870;4.722;2023-02-17T02:38:16;5.27;;;3.33;;
14554;SDS011;7364;50.870;4.722;2023-02-17T02:40:46;5.47;;;3.83;;
14554;SDS011;7364;50.870;4.722;2023-02-17T02:43:17;5.87;;;4.03;;
14554;SDS011;7364;50.870;4.722;2023-02-17T02:45:45;4.53;;;3.17;;
14554;SDS011;7364;50.870;4.722;2023-02-17T02:48:14;5.47;;;3.90;;
14554;SDS011;7364;50.870;4.722;2023-02-17T02:53:44;4.77;;;3.60;;
14554;SDS011;7364;50.870;4.722;2023-02-17T02:56:33;5.43;;;4.03;;
14554;SDS011;7364;50.870;4.722;2023-02-17T02:59:16;5.20;;;3.93;;
14554;SDS011;7364;50.870;4.722;2023-02-17T03:01:54;4.70;;;3.40;;
14554;SDS011;7364;50.870;4.722;2023-02-17T03:04:30;4.13;;;3.10;;
14554;SDS011;7364;50.870;4.722;2023-02-17T03:07:01;4.23;;;3.43;;
14554;SDS011;7364;50.870;4.722;2023-02-17T03:09:34;4.30;;;3.30;;
14554;SDS011;7364;50.870;4.722;2023-02-17T03:12:02;4.40;;;3.37;;
14554;SDS011;7364;50.870;4.722;2023-02-17T03:14:29;4.30;;;3.23;;
14554;SDS011;7364;50.870;4.722;2023-02-17T03:17:03;5.03;;;3.30;;
14554;SDS011;7364;50.870;4.722;2023-02-17T03:19:32;5.17;;;3.73;;
14554;SDS011;7364;50.870;4.722;2023-02-17T03:22:00;5.07;;;3.47;;
14554;SDS011;7364;50.870;4.722;2023-02-17T03:24:33;5.03;;;3.47;;
14554;SDS011;7364;50.870;4.722;2023-02-17T03:27:00;5.60;;;3.90;;
14554;SDS011;7364;50.870;4.722;2023-02-17T03:29:28;6.50;;;3.70;;
14554;SDS011;7364;50.870;4.722;2023-02-17T03:31:56;4.43;;;3.63;;
14554;SDS011;7364;50.870;4.722;2023-02-17T03:34:23;6.57;;;4.10;;
14554;SDS011;7364;50.870;4.722;2023-02-17T03:36:51;5.87;;;3.73;;
14554;SDS011;7364;50.870;4.722;2023-02-17T03:39:19;5.80;;;4.20;;
14554;SDS011;7364;50.870;4.722;2023-02-17T03:41:46;4.43;;;3.47;;
14554;SDS011;7364;50.870;4.722;2023-02-17T03:44:15;5.97;;;3.80;;
14554;SDS011;7364;50.870;4.722;2023-02-17T03:46:43;4.33;;;3.70;;
14554;SDS011;7364;50.870;4.722;2023-02-17T03:49:10;5.53;;;3.73;;
14554;SDS011;7364;50.870;4.722;2023-02-17T03:51:38;4.97;;;3.63;;
14554;SDS011;7364;50.870;4.722;2023-02-17T03:54:06;5.17;;;3.43;;
14554;SDS011;7364;50.870;4.722;2023-02-17T03:56:34;4.43;;;3.50;;
14554;SDS011;7364;50.870;4.722;2023-02-17T03:59:04;6.73;;;3.87;;
14554;SDS011;7364;50.870;4.722;2023-02-17T04:01:31;7.43;;;3.73;;
14554;SDS011;7364;50.870;4.722;2023-02-17T04:03:58;4.13;;;3.30;;
14554;SDS011;7364;50.870;4.722;2023-02-17T04:06:25;4.80;;;3.90;;
14554;SDS011;7364;50.870;4.722;2023-02-17T04:08:53;3.77;;;3.10;;
14554;SDS011;7364;50.870;4.722;2023-02-17T04:11:21;4.43;;;3.40;;
14554;SDS011;7364;50.870;4.722;2023-02-17T04:13:48;5.77;;;3.63;;
14554;SDS011;7364;50.870;4.722;2023-02-17T04:16:16;4.97;;;3.53;;
14554;SDS011;7364;50.870;4.722;2023-02-17T04:18:43;5.07;;;3.77;;
14554;SDS011;7364;50.870;4.722;2023-02-17T04:21:10;7.37;;;4.13;;
14554;SDS011;7364;50.870;4.722;2023-02-17T04:23:37;6.73;;;3.90;;
14554;SDS011;7364;50.870;4.722;2023-02-17T04:26:05;5.67;;;3.83;;
14554;SDS011;7364;50.870;4.722;2023-02-17T04:28:36;5.57;;;4.47;;
14554;SDS011;7364;50.870;4.722;2023-02-17T04:31:04;6.17;;;4.70;;
14554;SDS011;7364;50.870;4.722;2023-02-17T04:33:31;6.43;;;5.10;;
14554;SDS011;7364;50.870;4.722;2023-02-17T04:35:58;8.47;;;5.27;;
14554;SDS011;7364;50.870;4.722;2023-02-17T04:38:26;6.50;;;4.93;;
14554;SDS011;7364;50.870;4.722;2023-02-17T04:40:54;6.87;;;5.50;;
14554;SDS011;7364;50.870;4.722;2023-02-17T04:43:22;7.03;;;5.03;;
14554;SDS011;7364;50.870;4.722;2023-02-17T04:45:52;6.67;;;5.27;;
14554;SDS011;7364;50.870;4.722;2023-02-17T04:48:19;6.40;;;5.13;;
14554;SDS011;7364;50.870;4.722;2023-02-17T04:50:47;6.03;;;4.73;;
14554;SDS011;7364;50.870;4.722;2023-02-17T04:53:15;7.47;;;5.20;;
14554;SDS011;7364;50.870;4.722;2023-02-17T04:55:42;8.33;;;4.93;;
14554;SDS011;7364;50.870;4.722;2023-02-17T04:58:09;8.80;;;4.60;;
14554;SDS011;7364;50.870;4.722;2023-02-17T05:00:36;6.53;;;5.17;;
14554;SDS011;7364;50.870;4.722;2023-02-17T05:03:05;7.10;;;5.80;;
14554;SDS011;7364;50.870;4.722;2023-02-17T05:05:35;7.17;;;5.60;;
14554;SDS011;7364;50.870;4.722;2023-02-17T05:08:02;7.23;;;5.40;;
14554;SDS011;7364;50.870;4.722;2023-02-17T05:10:30;7.10;;;5.33;;
14554;SDS011;7364;50.870;4.722;2023-02-17T05:12:57;5.93;;;4.87;;
14554;SDS011;7364;50.870;4.722;2023-02-17T05:15:24;6.67;;;4.63;;
14554;SDS011;7364;50.870;4.722;2023-02-17T05:17:52;7.20;;;5.70;;
14554;SDS011;7364;50.870;4.722;2023-02-17T05:20:23;7.70;;;4.67;;
14554;SDS011;7364;50.870;4.722;2023-02-17T05:22:50;6.27;;;5.07;;
14554;SDS011;7364;50.870;4.722;2023-02-17T05:25:18;7.63;;;5.03;;
14554;SDS011;7364;50.870;4.722;2023-02-17T05:27:45;7.37;;;4.50;;
14554;SDS011;7364;50.870;4.722;2023-02-17T05:30:12;5.23;;;4.63;;
14554;SDS011;7364;50.870;4.722;2023-02-17T05:32:40;5.47;;;4.53;;
14554;SDS011;7364;50.870;4.722;2023-02-17T05:35:07;8.83;;;5.13;;
14554;SDS011;7364;50.870;4.722;2023-02-17T05:37:36;5.87;;;4.60;;
14554;SDS011;7364;50.870;4.722;2023-02-17T05:40:04;9.80;;;4.57;;
14554;SDS011;7364;50.870;4.722;2023-02-17T05:42:32;6.70;;;4.83;;
14554;SDS011;7364;50.870;4.722;2023-02-17T05:44:59;6.43;;;4.37;;
14554;SDS011;7364;50.870;4.722;2023-02-17T05:47:26;6.17;;;4.40;;
14554;SDS011;7364;50.870;4.722;2023-02-17T05:49:54;7.40;;;4.80;;
14554;SDS011;7364;50.870;4.722;2023-02-17T05:52:24;10.30;;;4.53;;
14554;SDS011;7364;50.870;4.722;2023-02-17T05:54:52;5.73;;;5.03;;
14554;SDS011;7364;50.870;4.722;2023-02-17T05:57:20;5.30;;;4.80;;
14554;SDS011;7364;50.870;4.722;2023-02-17T05:59:47;8.20;;;5.70;;
14554;SDS011;7364;50.870;4.722;2023-02-17T06:02:14;7.20;;;6.03;;
14554;SDS011;7364;50.870;4.722;2023-02-17T06:04:42;5.83;;;5.23;;
14554;SDS011;7364;50.870;4.722;2023-02-17T06:07:09;8.17;;;6.03;;
14554;SDS011;7364;50.870;4.722;2023-02-17T06:09:36;7.20;;;5.37;;
14554;SDS011;7364;50.870;4.722;2023-02-17T06:12:05;13.47;;;6.83;;
14554;SDS011;7364;50.870;4.722;2023-02-17T06:14:32;9.27;;;6.07;;
14554;SDS011;7364;50.870;4.722;2023-02-17T06:16:59;8.13;;;5.87;;
14554;SDS011;7364;50.870;4.722;2023-02-17T06:19:28;8.20;;;5.83;;
14554;SDS011;7364;50.870;4.722;2023-02-17T06:21:55;9.47;;;5.87;;
14554;SDS011;7364;50.870;4.722;2023-02-17T06:24:23;7.83;;;5.33;;
14554;SDS011;7364;50.870;4.722;2023-02-17T06:26:50;9.90;;;7.77;;
14554;SDS011;7364;50.870;4.722;2023-02-17T06:29:19;6.83;;;5.40;;
14554;SDS011;7364;50.870;4.722;2023-02-17T06:31:46;6.67;;;5.00;;
14554;SDS011;7364;50.870;4.722;2023-02-17T06:34:14;7.93;;;5.93;;
14554;SDS011;7364;50.870;4.722;2023-02-17T06:36:41;7.83;;;5.87;;
14554;SDS011;7364;50.870;4.722;2023-02-17T06:39:08;9.03;;;5.97;;
14554;SDS011;7364;50.870;4.722;2023-02-17T06:41:36;6.93;;;5.03;;
14554;SDS011;7364;50.870;4.722;2023-02-17T06:44:03;9.57;;;6.10;;
14554;SDS011;7364;50.870;4.722;2023-02-17T06:46:32;10.07;;;6.07;;
14554;SDS011;7364;50.870;4.722;2023-02-17T06:48:59;8.50;;;6.07;;
14554;SDS011;7364;50.870;4.722;2023-02-17T06:51:27;7.63;;;5.77;;
14554;SDS011;7364;50.870;4.722;2023-02-17T06:53:54;11.17;;;6.03;;
14554;SDS011;7364;50.870;4.722;2023-02-17T06:56:21;7.90;;;5.77;;
14554;SDS011;7364;50.870;4.722;2023-02-17T06:58:50;8.90;;;4.90;;
14554;SDS011;7364;50.870;4.722;2023-02-17T07:01:17;8.83;;;6.00;;
14554;SDS011;7364;50.870;4.722;2023-02-17T07:03:47;8.23;;;5.80;;
14554;SDS011;7364;50.870;4.722;2023-02-17T07:06:14;5.53;;;4.50;;
14554;SDS011;7364;50.870;4.722;2023-02-17T07:08:42;7.10;;;5.53;;
14554;SDS011;7364;50.870;4.722;2023-02-17T07:11:10;8.60;;;6.00;;
14554;SDS011;7364;50.870;4.722;2023-02-17T07:13:38;5.90;;;4.70;;
14554;SDS011;7364;50.870;4.722;2023-02-17T07:16:06;9.00;;;5.67;;
14554;SDS011;7364;50.870;4.722;2023-02-17T07:18:34;6.13;;;4.90;;
14554;SDS011;7364;50.870;4.722;2023-02-17T07:21:04;6.40;;;5.60;;
14554;SDS011;7364;50.870;4.722;2023-02-17T07:23:33;6.17;;;4.73;;
14554;SDS011;7364;50.870;4.722;2023-02-17T07:26:00;10.33;;;5.47;;
14554;SDS011;7364;50.870;4.722;2023-02-17T07:28:28;9.90;;;4.33;;
14554;SDS011;7364;50.870;4.722;2023-02-17T07:30:55;6.07;;;5.30;;
14554;SDS011;7364;50.870;4.722;2023-02-17T07:33:25;6.63;;;4.97;;
14554;SDS011;7364;50.870;4.722;2023-02-17T07:35:52;6.33;;;5.03;;
14554;SDS011;7364;50.870;4.722;2023-02-17T07:38:21;6.00;;;5.00;;
14554;SDS011;7364;50.870;4.722;2023-02-17T07:40:48;6.97;;;4.93;;
14554;SDS011;7364;50.870;4.722;2023-02-17T07:43:15;6.23;;;4.73;;
14554;SDS011;7364;50.870;4.722;2023-02-17T07:45:43;8.60;;;4.80;;
14554;SDS011;7364;50.870;4.722;2023-02-17T07:48:10;8.37;;;5.53;;
14554;SDS011;7364;50.870;4.722;2023-02-17T07:50:38;7.27;;;5.27;;
14554;SDS011;7364;50.870;4.722;2023-02-17T07:53:05;8.57;;;5.53;;
14554;SDS011;7364;50.870;4.722;2023-02-17T07:55:34;7.43;;;5.80;;
14554;SDS011;7364;50.870;4.722;2023-02-17T07:58:01;9.67;;;5.63;;
14554;SDS011;7364;50.870;4.722;2023-02-17T08:00:29;9.17;;;6.60;;
14554;SDS011;7364;50.870;4.722;2023-02-17T08:02:56;7.20;;;5.23;;
14554;SDS011;7364;50.870;4.722;2023-02-17T08:05:24;8.33;;;5.93;;
14554;SDS011;7364;50.870;4.722;2023-02-17T08:07:51;8.30;;;5.53;;
14554;SDS011;7364;50.870;4.722;2023-02-17T08:10:40;6.37;;;5.73;;
14554;SDS011;7364;50.870;4.722;2023-02-17T08:13:25;8.20;;;5.87;;
14554;SDS011;7364;50.870;4.722;2023-02-17T08:15:53;6.60;;;5.20;;
14554;SDS011;7364;50.870;4.722;2023-02-17T08:18:20;6.77;;;5.40;;
14554;SDS011;7364;50.870;4.722;2023-02-17T08:20:47;6.03;;;5.10;;
14554;SDS011;7364;50.870;4.722;2023-02-17T08:23:15;9.13;;;6.37;;
14554;SDS011;7364;50.870;4.722;2023-02-17T08:25:47;7.70;;;5.50;;
14554;SDS011;7364;50.870;4.722;2023-02-17T08:28:14;9.03;;;6.23;;
14554;SDS011;7364;50.870;4.722;2023-02-17T08:30:42;8.53;;;6.13;;
14554;SDS011;7364;50.870;4.722;2023-02-17T08:33:09;8.63;;;6.63;;
14554;SDS011;7364;50.870;4.722;2023-02-17T08:35:42;6.37;;;5.60;;
14554;SDS011;7364;50.870;4.722;2023-02-17T08:38:09;15.77;;;6.40;;
14554;SDS011;7364;50.870;4.722;2023-02-17T08:40:37;6.70;;;5.03;;
14554;SDS011;7364;50.870;4.722;2023-02-17T08:43:07;7.63;;;5.80;;
14554;SDS011;7364;50.870;4.722;2023-02-17T08:45:35;7.83;;;5.63;;
14554;SDS011;7364;50.870;4.722;2023-02-17T08:48:03;5.37;;;4.70;;
14554;SDS011;7364;50.870;4.722;2023-02-17T08:50:32;7.63;;;5.43;;
14554;SDS011;7364;50.870;4.722;2023-02-17T08:53:00;9.80;;;5.43;;
14554;SDS011;7364;50.870;4.722;2023-02-17T08:55:27;6.73;;;4.83;;
14554;SDS011;7364;50.870;4.722;2023-02-17T08:57:54;8.33;;;4.87;;
14554;SDS011;7364;50.870;4.722;2023-02-17T09:00:23;5.20;;;3.93;;
14554;SDS011;7364;50.870;4.722;2023-02-17T09:02:51;6.33;;;4.30;;
14554;SDS011;7364;50.870;4.722;2023-02-17T09:05:18;5.57;;;4.47;;
14554;SDS011;7364;50.870;4.722;2023-02-17T09:07:45;4.50;;;3.90;;
14554;SDS011;7364;50.870;4.722;2023-02-17T09:10:13;5.90;;;4.30;;
14554;SDS011;7364;50.870;4.722;2023-02-17T09:12:41;4.27;;;3.60;;
14554;SDS011;7364;50.870;4.722;2023-02-17T09:15:08;4.00;;;3.53;;
14554;SDS011;7364;50.870;4.722;2023-02-17T09:17:39;5.47;;;4.17;;
14554;SDS011;7364;50.870;4.722;2023-02-17T09:20:06;5.87;;;3.00;;
14554;SDS011;7364;50.870;4.722;2023-02-17T09:22:35;5.13;;;3.73;;
14554;SDS011;7364;50.870;4.722;2023-02-17T09:25:02;7.67;;;3.63;;
14554;SDS011;7364;50.870;4.722;2023-02-17T09:27:30;4.30;;;2.83;;
14554;SDS011;7364;50.870;4.722;2023-02-17T09:29:58;4.33;;;3.10;;
14554;SDS011;7364;50.870;4.722;2023-02-17T09:32:26;3.87;;;2.50;;
14554;SDS011;7364;50.870;4.722;2023-02-17T09:34:55;4.00;;;3.23;;
14554;SDS011;7364;50.870;4.722;2023-02-17T09:37:25;4.27;;;2.57;;
14554;SDS011;7364;50.870;4.722;2023-02-17T09:39:53;3.73;;;2.57;;
14554;SDS011;7364;50.870;4.722;2023-02-17T09:42:21;3.27;;;2.20;;
14554;SDS011;7364;50.870;4.722;2023-02-17T09:44:50;5.73;;;2.67;;
14554;SDS011;7364;50.870;4.722;2023-02-17T09:47:21;2.80;;;2.40;;
14554;SDS011;7364;50.870;4.722;2023-02-17T09:50:00;6.23;;;2.43;;
14554;SDS011;7364;50.870;4.722;2023-02-17T10:00:08;2.60;;;1.80;;
14554;SDS011;7364;50.870;4.722;2023-02-17T10:02:38;3.70;;;2.17;;
14554;SDS011;7364;50.870;4.722;2023-02-17T10:05:17;2.37;;;1.63;;
14554;SDS011;7364;50.870;4.722;2023-02-17T10:07:49;2.03;;;1.50;;
14554;SDS011;7364;50.870;4.722;2023-02-17T10:10:21;2.40;;;1.60;;
14554;SDS011;7364;50.870;4.722;2023-02-17T10:12:51;2.20;;;1.73;;
14554;SDS011;7364;50.870;4.722;2023-02-17T10:15:23;2.70;;;1.90;;
14554;SDS011;7364;50.870;4.722;2023-02-17T10:17:54;3.67;;;2.00;;
14554;SDS011;7364;50.870;4.722;2023-02-17T10:20:30;2.80;;;1.90;;
14554;SDS011;7364;50.870;4.722;2023-02-17T10:23:01;2.93;;;2.00;;
14554;SDS011;7364;50.870;4.722;2023-02-17T10:25:43;2.20;;;1.73;;
14554;SDS011;7364;50.870;4.722;2023-02-17T10:28:36;2.83;;;1.87;;
14554;SDS011;7364;50.870;4.722;2023-02-17T10:31:12;2.53;;;1.70;;
14554;SDS011;7364;50.870;4.722;2023-02-17T10:33:49;3.27;;;2.20;;
14554;SDS011;7364;50.870;4.722;2023-02-17T10:36:26;2.53;;;2.13;;
14554;SDS011;7364;50.870;4.722;2023-02-17T10:39:01;4.37;;;2.30;;
14554;SDS011;7364;50.870;4.722;2023-02-17T10:41:35;4.73;;;2.17;;
14554;SDS011;7364;50.870;4.722;2023-02-17T10:44:05;2.53;;;1.93;;
14554;SDS011;7364;50.870;4.722;2023-02-17T10:46:40;2.97;;;2.07;;
14554;SDS011;7364;50.870;4.722;2023-02-17T10:49:13;5.27;;;2.47;;
14554;SDS011;7364;50.870;4.722;2023-02-17T10:51:49;3.23;;;1.87;;
14554;SDS011;7364;50.870;4.722;2023-02-17T10:54:19;3.33;;;2.03;;
14554;SDS011;7364;50.870;4.722;2023-02-17T10:56:55;1.83;;;1.30;;
14554;SDS011;7364;50.870;4.722;2023-02-17T10:59:27;5.60;;;1.90;;
14554;SDS011;7364;50.870;4.722;2023-02-17T11:01:58;1.77;;;1.23;;
14554;SDS011;7364;50.870;4.722;2023-02-17T11:04:42;1.83;;;1.07;;
14554;SDS011;7364;50.870;4.722;2023-02-17T11:07:12;3.77;;;1.50;;
14554;SDS011;7364;50.870;4.722;2023-02-17T11:09:53;3.13;;;1.60;;
14554;SDS011;7364;50.870;4.722;2023-02-17T11:12:27;2.17;;;1.50;;
14554;SDS011;7364;50.870;4.722;2023-02-17T11:14:59;2.50;;;1.60;;
14554;SDS011;7364;50.870;4.722;2023-02-17T11:17:30;5.17;;;1.50;;
14554;SDS011;7364;50.870;4.722;2023-02-17T11:20:04;2.90;;;1.43;;
14554;SDS011;7364;50.870;4.722;2023-02-17T11:22:36;1.77;;;1.23;;
14554;SDS011;7364;50.870;4.722;2023-02-17T11:25:17;1.97;;;1.27;;
14554;SDS011;7364;50.870;4.722;2023-02-17T11:27:50;2.43;;;1.43;;
14554;SDS011;7364;50.870;4.722;2023-02-17T11:30:19;1.87;;;0.90;;
14554;SDS011;7364;50.870;4.722;2023-02-17T11:32:47;1.60;;;1.00;;
14554;SDS011;7364;50.870;4.722;2023-02-17T11:35:22;1.90;;;1.20;;
14554;SDS011;7364;50.870;4.722;2023-02-17T11:37:59;1.63;;;1.10;;
14554;SDS011;7364;50.870;4.722;2023-02-17T11:40:28;1.23;;;1.10;;
14554;SDS011;7364;50.870;4.722;2023-02-17T11:42:58;0.97;;;0.80;;
14554;SDS011;7364;50.870;4.722;2023-02-17T11:45:28;1.20;;;1.10;;
14554;SDS011;7364;50.870;4.722;2023-02-17T11:48:17;3.43;;;1.20;;
14554;SDS011;7364;50.870;4.722;2023-02-17T11:51:04;1.90;;;1.13;;
14554;SDS011;7364;50.870;4.722;2023-02-17T11:53:45;1.40;;;0.87;;
14554;SDS011;7364;50.870;4.722;2023-02-17T11:56:21;1.77;;;1.13;;
14554;SDS011;7364;50.870;4.722;2023-02-17T11:58:55;1.23;;;1.10;;
14554;SDS011;7364;50.870;4.722;2023-02-17T12:01:49;1.30;;;1.20;;
14554;SDS011;7364;50.870;4.722;2023-02-17T12:04:27;1.50;;;1.30;;
14554;SDS011;7364;50.870;4.722;2023-02-17T12:07:01;1.20;;;1.10;;
14554;SDS011;7364;50.870;4.722;2023-02-17T12:09:49;6.10;;;1.80;;
14554;SDS011;7364;50.870;4.722;2023-02-17T12:12:28;4.40;;;1.27;;
14554;SDS011;7364;50.870;4.722;2023-02-17T12:15:13;4.63;;;1.57;;
14554;SDS011;7364;50.870;4.722;2023-02-17T12:17:54;1.87;;;1.10;;
14554;SDS011;7364;50.870;4.722;2023-02-17T12:20:42;2.57;;;1.70;;
14554;SDS011;7364;50.870;4.722;2023-02-17T12:23:21;3.57;;;1.00;;
14554;SDS011;7364;50.870;4.722;2023-02-17T12:26:08;2.73;;;1.23;;
14554;SDS011;7364;50.870;4.722;2023-02-17T12:28:46;1.93;;;1.10;;
14554;SDS011;7364;50.870;4.722;2023-02-17T12:31:40;1.63;;;1.37;;
14554;SDS011;7364;50.870;4.722;2023-02-17T12:34:24;1.30;;;1.07;;
14554;SDS011;7364;50.870;4.722;2023-02-17T12:36:57;2.30;;;1.23;;
14554;SDS011;7364;50.870;4.722;2023-02-17T12:39:27;3.50;;;0.87;;
14554;SDS011;7364;50.870;4.722;2023-02-17T12:42:00;1.37;;;1.00;;
14554;SDS011;7364;50.870;4.722;2023-02-17T12:44:30;1.23;;;1.00;;
14554;SDS011;7364;50.870;4.722;2023-02-17T12:47:01;4.23;;;1.77;;
14554;SDS011;7364;50.870;4.722;2023-02-17T12:49:36;2.70;;;1.00;;
14554;SDS011;7364;50.870;4.722;2023-02-17T12:52:09;1.60;;;1.13;;
14554;SDS011;7364;50.870;4.722;2023-02-17T12:54:44;1.23;;;0.83;;
14554;SDS011;7364;50.870;4.722;2023-02-17T12:57:19;2.83;;;1.20;;
14554;SDS011;7364;50.870;4.722;2023-02-17T12:59:50;2.10;;;1.13;;
14554;SDS011;7364;50.870;4.722;2023-02-17T13:02:19;2.50;;;1.17;;
14554;SDS011;7364;50.870;4.722;2023-02-17T13:04:48;2.10;;;1.20;;
14554;SDS011;7364;50.870;4.722;2023-02-17T13:07:22;1.90;;;1.07;;
14554;SDS011;7364;50.870;4.722;2023-02-17T13:10:17;1.30;;;0.90;;
14554;SDS011;7364;50.870;4.722;2023-02-17T13:12:57;2.80;;;1.27;;
14554;SDS011;7364;50.870;4.722;2023-02-17T13:15:28;1.73;;;1.03;;
14554;SDS011;7364;50.870;4.722;2023-02-17T13:17:58;8.13;;;1.40;;
14554;SDS011;7364;50.870;4.722;2023-02-17T13:20:37;3.20;;;1.43;;
14554;SDS011;7364;50.870;4.722;2023-02-17T13:23:10;0.97;;;0.90;;
14554;SDS011;7364;50.870;4.722;2023-02-17T13:25:39;2.03;;;0.80;;
14554;SDS011;7364;50.870;4.722;2023-02-17T13:28:29;2.00;;;1.00;;
14554;SDS011;7364;50.870;4.722;2023-02-17T13:31:11;2.13;;;0.90;;
14554;SDS011;7364;50.870;4.722;2023-02-17T13:33:47;3.87;;;1.00;;
14554;SDS011;7364;50.870;4.722;2023-02-17T13:36:18;0.67;;;0.60;;
14554;SDS011;7364;50.870;4.722;2023-02-17T13:38:55;2.27;;;1.17;;
14554;SDS011;7364;50.870;4.722;2023-02-17T13:41:26;2.37;;;1.40;;
14554;SDS011;7364;50.870;4.722;2023-02-17T13:43:55;1.87;;;1.30;;
14554;SDS011;7364;50.870;4.722;2023-02-17T13:46:23;2.43;;;1.50;;
14554;SDS011;7364;50.870;4.722;2023-02-17T13:48:59;3.47;;;2.10;;
14554;SDS011;7364;50.870;4.722;2023-02-17T13:51:30;2.27;;;1.57;;
14554;SDS011;7364;50.870;4.722;2023-02-17T13:54:06;3.83;;;2.40;;
14554;SDS011;7364;50.870;4.722;2023-02-17T13:56:34;2.80;;;2.07;;
14554;SDS011;7364;50.870;4.722;2023-02-17T13:59:07;2.20;;;1.90;;
14554;SDS011;7364;50.870;4.722;2023-02-17T14:01:36;2.23;;;1.40;;
14554;SDS011;7364;50.870;4.722;2023-02-17T14:04:16;2.57;;;1.43;;
14554;SDS011;7364;50.870;4.722;2023-02-17T14:06:46;2.70;;;1.20;;
14554;SDS011;7364;50.870;4.722;2023-02-17T14:09:24;2.17;;;1.40;;
14554;SDS011;7364;50.870;4.722;2023-02-17T14:11:53;4.80;;;1.60;;
14554;SDS011;7364;50.870;4.722;2023-02-17T14:14:25;1.83;;;1.50;;
14554;SDS011;7364;50.870;4.722;2023-02-17T14:16:57;2.53;;;1.63;;
14554;SDS011;7364;50.870;4.722;2023-02-17T14:19:27;2.67;;;1.53;;
14554;SDS011;7364;50.870;4.722;2023-02-17T14:22:02;2.53;;;1.70;;
14554;SDS011;7364;50.870;4.722;2023-02-17T14:24:31;2.37;;;1.47;;
14554;SDS011;7364;50.870;4.722;2023-02-17T14:27:01;1.63;;;1.10;;
14554;SDS011;7364;50.870;4.722;2023-02-17T14:29:41;2.73;;;1.70;;
14554;SDS011;7364;50.870;4.722;2023-02-17T14:32:25;2.17;;;1.40;;
14554;SDS011;7364;50.870;4.722;2023-02-17T14:35:07;2.37;;;1.53;;
14554;SDS011;7364;50.870;4.722;2023-02-17T14:37:36;2.33;;;1.53;;
14554;SDS011;7364;50.870;4.722;2023-02-17T14:40:04;4.10;;;1.90;;
14554;SDS011;7364;50.870;4.722;2023-02-17T14:42:43;2.63;;;1.47;;
14554;SDS011;7364;50.870;4.722;2023-02-17T14:45:12;1.40;;;1.13;;
14554;SDS011;7364;50.870;4.722;2023-02-17T14:47:40;2.07;;;1.40;;
14554;SDS011;7364;50.870;4.722;2023-02-17T14:50:07;2.43;;;1.47;;
14554;SDS011;7364;50.870;4.722;2023-02-17T14:52:36;3.33;;;2.00;;
14554;SDS011;7364;50.870;4.722;2023-02-17T14:55:14;4.83;;;2.03;;
14554;SDS011;7364;50.870;4.722;2023-02-17T14:57:45;3.87;;;1.83;;
14554;SDS011;7364;50.870;4.722;2023-02-17T15:02:45;3.53;;;1.90;;
14554;SDS011;7364;50.870;4.722;2023-02-17T15:05:12;6.70;;;2.17;;
14554;SDS011;7364;50.870;4.722;2023-02-17T15:07:39;2.37;;;1.60;;
14554;SDS011;7364;50.870;4.722;2023-02-17T15:10:09;1.97;;;1.57;;
14554;SDS011;7364;50.870;4.722;2023-02-17T15:12:43;3.53;;;1.70;;
14554;SDS011;7364;50.870;4.722;2023-02-17T15:15:12;2.80;;;1.67;;
14554;SDS011;7364;50.870;4.722;2023-02-17T15:17:42;3.23;;;1.77;;
14554;SDS011;7364;50.870;4.722;2023-02-17T15:20:13;3.23;;;1.90;;
14554;SDS011;7364;50.870;4.722;2023-02-17T15:22:42;3.27;;;2.00;;
14554;SDS011;7364;50.870;4.722;2023-02-17T15:25:12;3.07;;;2.00;;
14554;SDS011;7364;50.870;4.722;2023-02-17T15:27:41;3.10;;;2.30;;
14554;SDS011;7364;50.870;4.722;2023-02-17T15:30:09;2.53;;;1.80;;
14554;SDS011;7364;50.870;4.722;2023-02-17T15:32:40;3.97;;;2.23;;
14554;SDS011;7364;50.870;4.722;2023-02-17T15:35:12;4.17;;;1.83;;
14554;SDS011;7364;50.870;4.722;2023-02-17T15:37:43;2.77;;;1.93;;
14554;SDS011;7364;50.870;4.722;2023-02-17T15:40:12;8.17;;;2.20;;